createdAt,value
2018-03-26T00:00:29.532Z,0.00
2018-03-26T00:01:29.503Z,0.00
2018-03-26T00:02:29.503Z,0.00
2018-03-26T00:03:29.465Z,0.00
2018-03-26T00:04:29.447Z,0.00
2018-03-26T00:05:29.424Z,0.00
2018-03-26T00:06:29.397Z,0.00
2018-03-26T00:07:29.383Z,0.00
2018-03-26T00:08:29.359Z,0.00
2018-03-26T00:09:29.335Z,0.00
2018-03-26T00:10:29.326Z,0.00
2018-03-26T00:11:29.342Z,0.00
2018-03-26T00:12:29.303Z,0.00
2018-03-26T00:13:29.300Z,0.00
2018-03-26T00:14:29.255Z,0.00
2018-03-26T00:15:29.230Z,0.00
2018-03-26T00:16:29.239Z,0.00
2018-03-26T00:17:29.249Z,0.00
2018-03-26T00:18:29.166Z,0.00
2018-03-26T00:19:29.147Z,0.00
2018-03-26T00:20:29.131Z,0.00
2018-03-26T00:21:29.108Z,0.00
2018-03-26T00:22:29.119Z,0.00
2018-03-26T00:23:29.057Z,0.00
2018-03-26T00:24:29.049Z,0.00
2018-03-26T00:25:29.067Z,0.00
2018-03-26T00:26:29.015Z,0.00
2018-03-26T00:27:29.001Z,0.00
2018-03-26T00:28:28.981Z,0.00
2018-03-26T00:29:28.974Z,0.00
2018-03-26T00:30:28.939Z,0.00
2018-03-26T00:31:28.910Z,0.00
2018-03-26T00:32:28.904Z,0.00
2018-03-26T00:33:28.872Z,0.00
2018-03-26T00:34:28.892Z,0.00
2018-03-26T00:35:28.838Z,0.00
2018-03-26T00:36:28.831Z,0.00
2018-03-26T00:37:28.803Z,0.00
2018-03-26T00:38:28.766Z,0.00
2018-03-26T00:39:28.754Z,0.00
2018-03-26T00:40:28.734Z,0.00
2018-03-26T00:41:28.722Z,0.00
2018-03-26T00:42:28.719Z,0.00
2018-03-26T00:43:28.685Z,0.00
2018-03-26T00:44:28.662Z,0.00
2018-03-26T00:45:28.667Z,0.00
2018-03-26T00:46:28.615Z,0.00
2018-03-26T00:47:28.608Z,0.00
2018-03-26T00:48:28.585Z,0.00
2018-03-26T00:49:28.554Z,0.00
2018-03-26T00:50:28.531Z,0.00
2018-03-26T00:51:28.518Z,0.00
2018-03-26T00:52:28.515Z,0.00
2018-03-26T00:53:28.480Z,0.00
2018-03-26T00:54:28.461Z,0.00
2018-03-26T00:55:28.486Z,0.00
2018-03-26T00:56:28.444Z,0.00
2018-03-26T00:57:28.401Z,0.00
2018-03-26T00:58:28.408Z,0.00
2018-03-26T00:59:28.364Z,0.00
2018-03-26T01:00:28.370Z,0.00
2018-03-26T01:01:28.332Z,0.00
2018-03-26T01:02:28.302Z,0.00
2018-03-26T01:03:28.290Z,0.00
2018-03-26T01:04:28.264Z,0.00
2018-03-26T01:05:28.258Z,0.00
2018-03-26T01:06:28.218Z,0.00
2018-03-26T01:07:28.230Z,0.00
2018-03-26T01:08:28.182Z,0.00
2018-03-26T01:09:28.167Z,0.00
2018-03-26T01:10:28.147Z,0.00
2018-03-26T01:11:28.150Z,0.00
2018-03-26T01:12:28.137Z,0.00
2018-03-26T01:13:28.106Z,0.00
2018-03-26T01:14:28.088Z,0.00
2018-03-26T01:15:28.068Z,0.00
2018-03-26T01:16:28.038Z,0.00
2018-03-26T01:17:28.034Z,0.00
2018-03-26T01:18:28.000Z,0.00
2018-03-26T01:19:27.980Z,0.00
2018-03-26T01:20:27.961Z,0.00
2018-03-26T01:21:27.986Z,0.00
2018-03-26T01:22:27.919Z,0.00
2018-03-26T01:23:27.901Z,0.00
2018-03-26T01:24:27.893Z,0.00
2018-03-26T01:25:27.868Z,0.00
2018-03-26T01:26:27.862Z,0.00
2018-03-26T01:27:27.849Z,0.00
2018-03-26T01:28:27.809Z,0.00
2018-03-26T01:29:27.803Z,0.00
2018-03-26T01:30:27.774Z,0.00
2018-03-26T01:31:27.751Z,0.00
2018-03-26T01:32:27.733Z,0.00
2018-03-26T01:33:27.736Z,0.00
2018-03-26T01:34:27.706Z,0.00
2018-03-26T01:35:27.685Z,0.00
2018-03-26T01:36:27.653Z,0.00
2018-03-26T01:37:27.656Z,0.00
2018-03-26T01:38:27.633Z,0.00
2018-03-26T01:39:27.589Z,0.00
2018-03-26T01:40:27.578Z,0.00
2018-03-26T01:41:27.550Z,0.00
2018-03-26T01:42:27.559Z,0.00
2018-03-26T01:43:27.505Z,0.00
2018-03-26T01:44:27.505Z,0.00
2018-03-26T01:45:27.476Z,0.00
2018-03-26T01:46:27.460Z,0.00
2018-03-26T01:47:27.450Z,0.00
2018-03-26T01:48:27.431Z,0.00
2018-03-26T01:49:27.402Z,0.00
2018-03-26T01:50:27.409Z,0.00
2018-03-26T01:51:27.361Z,0.00
2018-03-26T01:52:27.367Z,0.00
2018-03-26T01:53:27.372Z,0.00
2018-03-26T01:54:27.311Z,0.00
2018-03-26T01:55:27.290Z,0.00
2018-03-26T01:56:27.279Z,0.00
2018-03-26T01:57:27.245Z,0.00
2018-03-26T01:58:27.229Z,0.00
2018-03-26T01:59:27.210Z,0.00
2018-03-26T02:00:27.186Z,0.00
2018-03-26T02:01:27.175Z,0.00
2018-03-26T02:02:27.152Z,0.00
2018-03-26T02:03:27.133Z,0.00
2018-03-26T02:04:27.120Z,0.00
2018-03-26T02:05:27.094Z,0.00
2018-03-26T02:06:27.095Z,0.00
2018-03-26T02:07:27.065Z,0.00
2018-03-26T02:08:27.066Z,0.00
2018-03-26T02:09:27.040Z,0.00
2018-03-26T02:10:26.997Z,0.00
2018-03-26T02:11:26.981Z,0.00
2018-03-26T02:12:26.987Z,0.00
2018-03-26T02:13:26.939Z,0.00
2018-03-26T02:14:26.946Z,0.00
2018-03-26T02:15:26.898Z,0.00
2018-03-26T02:16:26.932Z,0.00
2018-03-26T02:17:26.872Z,0.00
2018-03-26T02:18:26.869Z,0.00
2018-03-26T02:19:26.837Z,0.00
2018-03-26T02:20:26.824Z,0.00
2018-03-26T02:21:26.792Z,0.00
2018-03-26T02:22:26.774Z,0.00
2018-03-26T02:23:26.744Z,0.00
2018-03-26T02:24:26.726Z,0.00
2018-03-26T02:25:26.706Z,0.00
2018-03-26T02:26:26.690Z,0.00
2018-03-26T02:27:26.675Z,0.00
2018-03-26T02:28:26.662Z,0.00
2018-03-26T02:29:26.645Z,0.00
2018-03-26T02:30:26.623Z,0.00
2018-03-26T02:31:26.623Z,0.00
2018-03-26T02:32:26.601Z,0.00
2018-03-26T02:33:26.593Z,0.00
2018-03-26T02:34:26.546Z,0.00
2018-03-26T02:35:26.515Z,0.00
2018-03-26T02:36:26.531Z,0.00
2018-03-26T02:37:26.518Z,0.00
2018-03-26T02:38:26.482Z,0.00
2018-03-26T02:39:26.451Z,0.00
2018-03-26T02:40:26.451Z,0.00
2018-03-26T02:41:26.409Z,0.00
2018-03-26T02:42:26.427Z,0.00
2018-03-26T02:43:26.370Z,0.00
2018-03-26T02:44:26.339Z,0.00
2018-03-26T02:45:26.331Z,0.00
2018-03-26T02:46:26.308Z,0.00
2018-03-26T02:47:26.291Z,0.00
2018-03-26T02:48:26.287Z,0.00
2018-03-26T02:49:26.275Z,0.00
2018-03-26T02:50:26.240Z,0.00
2018-03-26T02:51:26.215Z,0.00
2018-03-26T02:52:26.224Z,0.00
2018-03-26T02:53:26.190Z,0.00
2018-03-26T02:54:26.154Z,0.00
2018-03-26T02:55:26.152Z,0.00
2018-03-26T02:56:26.116Z,0.00
2018-03-26T02:57:26.113Z,0.00
2018-03-26T02:58:26.091Z,0.00
2018-03-26T02:59:26.066Z,0.00
2018-03-26T03:00:26.072Z,0.00
2018-03-26T03:01:26.032Z,0.00
2018-03-26T03:02:26.014Z,0.00
2018-03-26T03:03:25.996Z,0.00
2018-03-26T03:04:25.988Z,0.00
2018-03-26T03:05:25.975Z,0.00
2018-03-26T03:06:25.932Z,0.00
2018-03-26T03:07:25.916Z,0.00
2018-03-26T03:08:25.901Z,0.00
2018-03-26T03:09:25.881Z,0.00
2018-03-26T03:10:25.865Z,0.00
2018-03-26T03:11:25.840Z,0.00
2018-03-26T03:12:25.821Z,0.00
2018-03-26T03:13:25.815Z,0.00
2018-03-26T03:14:25.774Z,0.00
2018-03-26T03:15:25.783Z,0.00
2018-03-26T03:16:25.802Z,0.00
2018-03-26T03:17:25.716Z,0.00
2018-03-26T03:18:25.704Z,0.00
2018-03-26T03:19:25.686Z,0.00
2018-03-26T03:20:25.662Z,0.00
2018-03-26T03:21:25.645Z,0.00
2018-03-26T03:22:25.649Z,0.00
2018-03-26T03:23:25.620Z,0.00
2018-03-26T03:24:25.587Z,0.00
2018-03-26T03:25:25.568Z,0.00
2018-03-26T03:26:25.550Z,0.00
2018-03-26T03:27:25.543Z,0.00
2018-03-26T03:28:25.539Z,0.00
2018-03-26T03:29:25.504Z,0.00
2018-03-26T03:30:25.483Z,0.00
2018-03-26T03:31:25.488Z,0.00
2018-03-26T03:32:25.435Z,0.00
2018-03-26T03:33:25.455Z,0.00
2018-03-26T03:34:25.449Z,0.00
2018-03-26T03:35:25.400Z,0.00
2018-03-26T03:36:25.416Z,0.00
2018-03-26T03:37:25.343Z,0.00
2018-03-26T03:38:25.314Z,0.00
2018-03-26T03:39:25.327Z,0.00
2018-03-26T03:40:25.292Z,0.00
2018-03-26T03:41:25.272Z,0.00
2018-03-26T03:42:25.253Z,0.00
2018-03-26T03:43:25.228Z,0.00
2018-03-26T03:44:25.208Z,0.00
2018-03-26T03:45:25.240Z,0.00
2018-03-26T03:46:25.198Z,0.00
2018-03-26T03:47:25.154Z,0.00
2018-03-26T03:48:25.160Z,0.00
2018-03-26T03:49:25.113Z,0.00
2018-03-26T03:50:25.090Z,0.00
2018-03-26T03:51:25.080Z,0.00
2018-03-26T03:52:25.072Z,0.00
2018-03-26T03:53:25.035Z,0.00
2018-03-26T03:54:25.026Z,0.00
2018-03-26T03:55:25.016Z,0.00
2018-03-26T03:56:25.003Z,0.00
2018-03-26T03:57:24.961Z,0.00
2018-03-26T03:58:24.942Z,0.00
2018-03-26T03:59:24.929Z,0.00
2018-03-26T04:00:24.911Z,0.00
2018-03-26T04:01:24.901Z,0.00
2018-03-26T04:02:24.885Z,0.00
2018-03-26T04:03:24.843Z,0.00
2018-03-26T04:04:24.864Z,0.00
2018-03-26T04:05:24.811Z,0.00
2018-03-26T04:06:24.781Z,0.00
2018-03-26T04:07:24.781Z,0.00
2018-03-26T04:08:24.776Z,0.00
2018-03-26T04:09:24.782Z,0.00
2018-03-26T04:10:24.727Z,0.00
2018-03-26T04:11:24.695Z,0.00
2018-03-26T04:12:24.692Z,0.00
2018-03-26T04:13:24.654Z,0.00
2018-03-26T04:14:24.636Z,0.00
2018-03-26T04:15:24.620Z,0.00
2018-03-26T04:16:24.606Z,0.00
2018-03-26T04:17:24.568Z,0.00
2018-03-26T04:18:24.558Z,0.00
2018-03-26T04:19:24.543Z,0.00
2018-03-26T04:20:24.521Z,0.00
2018-03-26T04:21:24.501Z,0.00
2018-03-26T04:22:24.481Z,0.00
2018-03-26T04:23:24.469Z,0.00
2018-03-26T04:24:24.443Z,0.00
2018-03-26T04:25:24.425Z,0.00
2018-03-26T04:26:24.411Z,0.00
2018-03-26T04:27:24.383Z,0.00
2018-03-26T04:28:24.377Z,0.00
2018-03-26T04:29:24.346Z,0.00
2018-03-26T04:30:24.326Z,0.00
2018-03-26T04:31:24.313Z,0.00
2018-03-26T04:32:24.294Z,0.00
2018-03-26T04:33:24.281Z,0.00
2018-03-26T04:34:24.255Z,0.00
2018-03-26T04:35:24.233Z,0.00
2018-03-26T04:36:24.221Z,0.00
2018-03-26T04:37:24.195Z,0.00
2018-03-26T04:38:24.175Z,0.00
2018-03-26T04:39:24.156Z,0.00
2018-03-26T04:40:24.143Z,0.00
2018-03-26T04:41:24.121Z,0.00
2018-03-26T04:42:24.106Z,0.00
2018-03-26T04:43:24.086Z,0.00
2018-03-26T04:44:24.057Z,0.00
2018-03-26T04:45:24.039Z,0.00
2018-03-26T04:46:24.027Z,0.00
2018-03-26T04:47:24.004Z,0.00
2018-03-26T04:48:23.990Z,0.00
2018-03-26T04:49:23.962Z,0.00
2018-03-26T04:50:23.981Z,0.00
2018-03-26T04:51:23.924Z,0.00
2018-03-26T04:52:23.924Z,0.00
2018-03-26T04:53:23.887Z,0.00
2018-03-26T04:54:23.875Z,0.00
2018-03-26T04:55:23.857Z,0.00
2018-03-26T04:56:23.835Z,0.00
2018-03-26T04:57:23.809Z,0.00
2018-03-26T04:58:23.794Z,0.00
2018-03-26T04:59:23.774Z,0.00
2018-03-26T05:00:23.764Z,0.00
2018-03-26T05:01:23.762Z,0.00
2018-03-26T05:02:23.716Z,0.00
2018-03-26T05:03:23.701Z,0.00
2018-03-26T05:04:23.690Z,0.00
2018-03-26T05:05:23.656Z,0.00
2018-03-26T05:06:23.644Z,0.00
2018-03-26T05:07:23.627Z,0.00
2018-03-26T05:08:23.613Z,0.00
2018-03-26T05:09:23.590Z,0.00
2018-03-26T05:10:23.571Z,0.00
2018-03-26T05:11:23.545Z,0.00
2018-03-26T05:12:23.523Z,5.63
2018-03-26T05:13:23.511Z,5.63
2018-03-26T05:14:23.497Z,5.63
2018-03-26T05:15:23.465Z,5.63
2018-03-26T05:16:23.449Z,5.63
2018-03-26T05:17:23.442Z,5.63
2018-03-26T05:18:23.419Z,5.63
2018-03-26T05:19:23.383Z,5.63
2018-03-26T05:20:23.368Z,5.63
2018-03-26T05:21:23.356Z,5.63
2018-03-26T05:22:23.339Z,5.63
2018-03-26T05:23:23.315Z,11.25
2018-03-26T05:24:23.310Z,11.25
2018-03-26T05:25:23.271Z,11.25
2018-03-26T05:26:23.264Z,11.25
2018-03-26T05:27:23.243Z,11.25
2018-03-26T05:28:23.243Z,11.25
2018-03-26T05:29:23.201Z,11.25
2018-03-26T05:30:23.197Z,11.25
2018-03-26T05:31:23.181Z,16.88
2018-03-26T05:32:23.146Z,16.88
2018-03-26T05:33:23.127Z,16.88
2018-03-26T05:34:23.114Z,16.88
2018-03-26T05:35:23.091Z,16.88
2018-03-26T05:36:23.098Z,22.50
2018-03-26T05:37:23.050Z,22.50
2018-03-26T05:38:23.036Z,22.50
2018-03-26T05:39:23.007Z,22.50
2018-03-26T05:40:22.994Z,28.13
2018-03-26T05:41:22.971Z,28.13
2018-03-26T05:42:22.946Z,28.13
2018-03-26T05:43:22.955Z,28.13
2018-03-26T05:44:22.910Z,28.13
2018-03-26T05:45:22.892Z,33.75
2018-03-26T05:46:22.889Z,33.75
2018-03-26T05:47:22.862Z,33.75
2018-03-26T05:48:22.850Z,33.75
2018-03-26T05:49:22.880Z,33.75
2018-03-26T05:50:22.840Z,39.38
2018-03-26T05:51:22.805Z,39.38
2018-03-26T05:52:22.770Z,39.38
2018-03-26T05:53:22.761Z,39.38
2018-03-26T05:54:22.738Z,39.38
2018-03-26T05:55:22.700Z,39.38
2018-03-26T05:56:22.681Z,45.00
2018-03-26T05:57:22.677Z,45.00
2018-03-26T05:58:22.645Z,45.00
2018-03-26T05:59:22.649Z,45.00
2018-03-26T06:00:22.610Z,50.63
2018-03-26T06:01:22.603Z,50.63
2018-03-26T06:02:22.574Z,56.25
2018-03-26T06:03:22.578Z,56.25
2018-03-26T06:04:22.536Z,56.25
2018-03-26T06:05:22.524Z,61.88
2018-03-26T06:06:22.498Z,61.88
2018-03-26T06:07:22.486Z,67.50
2018-03-26T06:08:22.488Z,73.13
2018-03-26T06:09:22.443Z,78.75
2018-03-26T06:10:22.488Z,84.38
2018-03-26T06:11:22.404Z,90.00
2018-03-26T06:12:22.378Z,95.63
2018-03-26T06:13:22.433Z,95.63
2018-03-26T06:14:22.339Z,101.25
2018-03-26T06:15:22.350Z,106.88
2018-03-26T06:16:22.325Z,106.88
2018-03-26T06:17:22.286Z,112.50
2018-03-26T06:18:22.264Z,112.50
2018-03-26T06:19:22.257Z,118.13
2018-03-26T06:20:22.229Z,118.13
2018-03-26T06:21:22.207Z,123.75
2018-03-26T06:22:22.208Z,123.75
2018-03-26T06:23:22.176Z,129.38
2018-03-26T06:24:22.159Z,129.38
2018-03-26T06:25:22.149Z,129.38
2018-03-26T06:26:22.114Z,129.38
2018-03-26T06:27:22.108Z,135.00
2018-03-26T06:28:22.082Z,129.38
2018-03-26T06:29:22.067Z,129.38
2018-03-26T06:30:22.044Z,129.38
2018-03-26T06:31:22.022Z,129.38
2018-03-26T06:32:22.010Z,129.38
2018-03-26T06:33:21.990Z,129.38
2018-03-26T06:34:21.965Z,135.00
2018-03-26T06:35:21.958Z,135.00
2018-03-26T06:36:21.937Z,135.00
2018-03-26T06:37:21.909Z,135.00
2018-03-26T06:38:21.898Z,135.00
2018-03-26T06:39:21.875Z,135.00
2018-03-26T06:40:21.862Z,135.00
2018-03-26T06:41:21.833Z,140.63
2018-03-26T06:42:21.823Z,140.63
2018-03-26T06:43:21.817Z,146.25
2018-03-26T06:44:21.776Z,146.25
2018-03-26T06:45:21.757Z,151.88
2018-03-26T06:46:21.756Z,151.88
2018-03-26T06:47:21.722Z,157.50
2018-03-26T06:48:21.706Z,157.50
2018-03-26T06:49:21.709Z,163.13
2018-03-26T06:50:21.674Z,168.75
2018-03-26T06:51:21.658Z,174.38
2018-03-26T06:52:21.656Z,180.00
2018-03-26T06:53:21.636Z,185.63
2018-03-26T06:54:21.600Z,191.25
2018-03-26T06:55:21.608Z,196.88
2018-03-26T06:56:21.563Z,208.13
2018-03-26T06:57:21.546Z,213.75
2018-03-26T06:58:21.546Z,219.38
2018-03-26T06:59:21.502Z,225.00
2018-03-26T07:00:21.496Z,225.00
2018-03-26T07:01:21.466Z,225.00
2018-03-26T07:02:21.503Z,230.63
2018-03-26T07:03:21.432Z,230.63
2018-03-26T07:04:21.422Z,236.25
2018-03-26T07:05:21.393Z,241.88
2018-03-26T07:06:21.368Z,247.50
2018-03-26T07:07:21.387Z,241.88
2018-03-26T07:08:21.342Z,241.88
2018-03-26T07:09:21.307Z,241.88
2018-03-26T07:10:21.295Z,247.50
2018-03-26T07:11:21.285Z,253.13
2018-03-26T07:12:21.330Z,258.75
2018-03-26T07:13:21.250Z,270.00
2018-03-26T07:14:21.232Z,275.63
2018-03-26T07:15:21.229Z,281.25
2018-03-26T07:16:21.213Z,286.88
2018-03-26T07:17:21.181Z,292.50
2018-03-26T07:18:21.162Z,303.75
2018-03-26T07:19:21.158Z,309.38
2018-03-26T07:20:21.121Z,315.00
2018-03-26T07:21:21.118Z,315.00
2018-03-26T07:22:21.115Z,315.00
2018-03-26T07:23:21.076Z,315.00
2018-03-26T07:24:21.050Z,315.00
2018-03-26T07:25:21.053Z,315.00
2018-03-26T07:26:21.016Z,315.00
2018-03-26T07:27:21.000Z,320.63
2018-03-26T07:28:21.009Z,326.25
2018-03-26T07:29:20.988Z,331.88
2018-03-26T07:30:20.948Z,337.50
2018-03-26T07:31:20.927Z,343.13
2018-03-26T07:32:20.917Z,343.13
2018-03-26T07:33:20.904Z,343.13
2018-03-26T07:34:20.888Z,337.50
2018-03-26T07:35:20.859Z,337.50
2018-03-26T07:36:20.840Z,337.50
2018-03-26T07:37:20.827Z,337.50
2018-03-26T07:38:20.830Z,337.50
2018-03-26T07:39:20.801Z,343.13
2018-03-26T07:40:20.782Z,343.13
2018-03-26T07:41:20.784Z,343.13
2018-03-26T07:42:20.752Z,343.13
2018-03-26T07:43:20.728Z,343.13
2018-03-26T07:44:20.730Z,343.13
2018-03-26T07:45:20.689Z,348.75
2018-03-26T07:46:20.679Z,348.75
2018-03-26T07:47:20.654Z,348.75
2018-03-26T07:48:20.648Z,354.38
2018-03-26T07:49:20.614Z,354.38
2018-03-26T07:50:20.605Z,360.00
2018-03-26T07:51:20.588Z,360.00
2018-03-26T07:52:20.573Z,360.00
2018-03-26T07:53:20.547Z,365.63
2018-03-26T07:54:20.530Z,365.63
2018-03-26T07:55:20.521Z,365.63
2018-03-26T07:56:20.505Z,360.00
2018-03-26T07:57:20.489Z,354.38
2018-03-26T07:58:20.460Z,354.38
2018-03-26T07:59:20.460Z,360.00
2018-03-26T08:00:20.454Z,365.63
2018-03-26T08:01:20.418Z,365.63
2018-03-26T08:02:20.428Z,371.25
2018-03-26T08:03:20.380Z,371.25
2018-03-26T08:04:20.370Z,371.25
2018-03-26T08:05:20.371Z,371.25
2018-03-26T08:06:20.351Z,365.63
2018-03-26T08:07:20.348Z,360.00
2018-03-26T08:08:20.300Z,348.75
2018-03-26T08:09:20.302Z,337.50
2018-03-26T08:10:20.259Z,326.25
2018-03-26T08:11:20.257Z,320.63
2018-03-26T08:12:20.231Z,309.38
2018-03-26T08:13:20.217Z,309.38
2018-03-26T08:14:20.201Z,309.38
2018-03-26T08:15:20.186Z,315.00
2018-03-26T08:16:20.169Z,315.00
2018-03-26T08:17:20.184Z,315.00
2018-03-26T08:18:20.143Z,320.63
2018-03-26T08:19:20.125Z,320.63
2018-03-26T08:20:20.145Z,326.25
2018-03-26T08:21:20.098Z,337.50
2018-03-26T08:22:20.058Z,343.13
2018-03-26T08:23:20.066Z,354.38
2018-03-26T08:24:20.044Z,360.00
2018-03-26T08:25:20.005Z,371.25
2018-03-26T08:26:20.040Z,376.88
2018-03-26T08:27:19.982Z,382.50
2018-03-26T08:28:19.976Z,382.50
2018-03-26T08:29:19.955Z,382.50
2018-03-26T08:30:19.936Z,376.88
2018-03-26T08:31:19.929Z,371.25
2018-03-26T08:32:19.889Z,371.25
2018-03-26T08:33:19.890Z,360.00
2018-03-26T08:34:19.860Z,354.38
2018-03-26T08:35:19.877Z,348.75
2018-03-26T08:36:19.824Z,348.75
2018-03-26T08:37:19.821Z,348.75
2018-03-26T08:38:19.798Z,343.13
2018-03-26T08:39:19.773Z,337.50
2018-03-26T08:40:19.789Z,337.50
2018-03-26T08:41:19.747Z,337.50
2018-03-26T08:42:19.834Z,343.13
2018-03-26T08:43:19.709Z,343.13
2018-03-26T08:44:19.716Z,348.75
2018-03-26T08:45:19.683Z,354.38
2018-03-26T08:46:19.657Z,360.00
2018-03-26T08:47:19.654Z,365.63
2018-03-26T08:48:19.651Z,365.63
2018-03-26T08:49:19.630Z,365.63
2018-03-26T08:50:19.661Z,371.25
2018-03-26T08:51:19.600Z,371.25
2018-03-26T08:52:19.561Z,371.25
2018-03-26T08:53:19.556Z,376.88
2018-03-26T08:54:19.543Z,376.88
2018-03-26T08:55:19.511Z,382.50
2018-03-26T08:56:19.561Z,388.13
2018-03-26T08:57:19.508Z,399.38
2018-03-26T08:58:19.475Z,405.00
2018-03-26T08:59:19.500Z,416.25
2018-03-26T09:00:19.434Z,421.88
2018-03-26T09:01:19.418Z,427.50
2018-03-26T09:02:19.394Z,427.50
2018-03-26T09:03:19.375Z,427.50
2018-03-26T09:04:19.396Z,427.50
2018-03-26T09:05:19.348Z,416.25
2018-03-26T09:06:19.352Z,410.63
2018-03-26T09:07:19.313Z,399.38
2018-03-26T09:08:19.290Z,393.75
2018-03-26T09:09:19.278Z,393.75
2018-03-26T09:10:19.274Z,388.13
2018-03-26T09:11:19.246Z,382.50
2018-03-26T09:12:19.236Z,382.50
2018-03-26T09:13:19.237Z,382.50
2018-03-26T09:14:19.208Z,382.50
2018-03-26T09:15:19.189Z,382.50
2018-03-26T09:16:19.180Z,376.88
2018-03-26T09:17:19.185Z,376.88
2018-03-26T09:18:19.145Z,376.88
2018-03-26T09:19:19.122Z,376.88
2018-03-26T09:20:19.103Z,376.88
2018-03-26T09:21:19.088Z,393.75
2018-03-26T09:22:19.084Z,393.75
2018-03-26T09:23:19.054Z,405.00
2018-03-26T09:24:19.034Z,410.63
2018-03-26T09:25:19.027Z,410.63
2018-03-26T09:26:18.999Z,410.63
2018-03-26T09:27:18.988Z,405.00
2018-03-26T09:28:18.975Z,405.00
2018-03-26T09:29:18.950Z,405.00
2018-03-26T09:30:18.943Z,405.00
2018-03-26T09:31:18.942Z,405.00
2018-03-26T09:32:18.911Z,410.63
2018-03-26T09:33:18.893Z,410.63
2018-03-26T09:34:18.877Z,410.63
2018-03-26T09:35:18.857Z,405.00
2018-03-26T09:36:18.845Z,405.00
2018-03-26T09:37:18.836Z,405.00
2018-03-26T09:38:18.811Z,405.00
2018-03-26T09:39:18.794Z,410.63
2018-03-26T09:40:18.802Z,416.25
2018-03-26T09:41:18.766Z,416.25
2018-03-26T09:42:18.750Z,416.25
2018-03-26T09:43:18.730Z,410.63
2018-03-26T09:44:18.719Z,405.00
2018-03-26T09:45:18.728Z,399.38
2018-03-26T09:46:18.687Z,393.75
2018-03-26T09:47:18.671Z,393.75
2018-03-26T09:48:18.667Z,388.13
2018-03-26T09:49:18.650Z,388.13
2018-03-26T09:50:18.661Z,388.13
2018-03-26T09:51:18.604Z,388.13
2018-03-26T09:52:18.585Z,388.13
2018-03-26T09:53:18.579Z,388.13
2018-03-26T09:54:18.559Z,388.13
2018-03-26T09:55:18.545Z,388.13
2018-03-26T09:56:18.530Z,388.13
2018-03-26T09:57:18.511Z,388.13
2018-03-26T09:58:18.492Z,393.75
2018-03-26T09:59:18.473Z,393.75
2018-03-26T10:00:18.469Z,388.13
2018-03-26T10:01:18.487Z,388.13
2018-03-26T10:02:18.429Z,388.13
2018-03-26T10:03:18.419Z,388.13
2018-03-26T10:04:18.418Z,388.13
2018-03-26T10:05:18.377Z,393.75
2018-03-26T10:06:18.366Z,393.75
2018-03-26T10:07:18.356Z,399.38
2018-03-26T10:08:18.363Z,399.38
2018-03-26T10:09:18.312Z,399.38
2018-03-26T10:10:18.305Z,405.00
2018-03-26T10:11:18.283Z,405.00
2018-03-26T10:12:18.274Z,410.63
2018-03-26T10:13:18.265Z,405.00
2018-03-26T10:14:18.250Z,405.00
2018-03-26T10:15:18.221Z,399.38
2018-03-26T10:16:18.212Z,399.38
2018-03-26T10:17:18.189Z,393.75
2018-03-26T10:18:18.174Z,393.75
2018-03-26T10:19:18.154Z,393.75
2018-03-26T10:20:18.154Z,393.75
2018-03-26T10:21:18.125Z,388.13
2018-03-26T10:22:18.112Z,388.13
2018-03-26T10:23:18.097Z,388.13
2018-03-26T10:24:18.079Z,388.13
2018-03-26T10:25:18.106Z,382.50
2018-03-26T10:26:18.045Z,382.50
2018-03-26T10:27:18.032Z,382.50
2018-03-26T10:28:18.026Z,388.13
2018-03-26T10:29:17.997Z,382.50
2018-03-26T10:30:17.984Z,382.50
2018-03-26T10:31:17.969Z,376.88
2018-03-26T10:32:17.956Z,371.25
2018-03-26T10:33:17.936Z,371.25
2018-03-26T10:34:17.920Z,365.63
2018-03-26T10:35:17.904Z,365.63
2018-03-26T10:36:17.895Z,360.00
2018-03-26T10:37:17.901Z,371.25
2018-03-26T10:38:17.885Z,376.88
2018-03-26T10:39:17.850Z,376.88
2018-03-26T10:40:17.864Z,382.50
2018-03-26T10:41:17.811Z,382.50
2018-03-26T10:42:17.824Z,388.13
2018-03-26T10:43:17.773Z,388.13
2018-03-26T10:44:17.759Z,388.13
2018-03-26T10:45:17.759Z,382.50
2018-03-26T10:46:17.728Z,376.88
2018-03-26T10:47:17.729Z,371.25
2018-03-26T10:48:17.715Z,371.25
2018-03-26T10:49:17.688Z,371.25
2018-03-26T10:50:17.684Z,376.88
2018-03-26T10:51:17.649Z,382.50
2018-03-26T10:52:17.638Z,382.50
2018-03-26T10:53:17.615Z,388.13
2018-03-26T10:54:17.631Z,393.75
2018-03-26T10:55:17.588Z,393.75
2018-03-26T10:56:17.577Z,393.75
2018-03-26T10:57:17.560Z,399.38
2018-03-26T10:58:17.535Z,399.38
2018-03-26T10:59:17.538Z,410.63
2018-03-26T11:00:17.561Z,416.25
2018-03-26T11:01:17.487Z,421.88
2018-03-26T11:02:17.493Z,427.50
2018-03-26T11:03:17.474Z,427.50
2018-03-26T11:04:17.441Z,427.50
2018-03-26T11:05:17.424Z,427.50
2018-03-26T11:06:17.410Z,433.13
2018-03-26T11:07:17.392Z,438.75
2018-03-26T11:08:17.374Z,450.00
2018-03-26T11:09:17.357Z,450.00
2018-03-26T11:10:17.354Z,444.38
2018-03-26T11:11:17.361Z,444.38
2018-03-26T11:12:17.326Z,444.38
2018-03-26T11:13:17.291Z,450.00
2018-03-26T11:14:17.288Z,455.63
2018-03-26T11:15:17.271Z,461.25
2018-03-26T11:16:17.255Z,472.50
2018-03-26T11:17:17.227Z,478.13
2018-03-26T11:18:17.217Z,489.38
2018-03-26T11:19:17.201Z,495.00
2018-03-26T11:20:17.187Z,500.63
2018-03-26T11:21:17.175Z,506.25
2018-03-26T11:22:17.146Z,506.25
2018-03-26T11:23:17.131Z,506.25
2018-03-26T11:24:17.131Z,506.25
2018-03-26T11:25:17.130Z,500.63
2018-03-26T11:26:17.099Z,500.63
2018-03-26T11:27:17.076Z,506.25
2018-03-26T11:28:17.057Z,506.25
2018-03-26T11:29:17.041Z,511.88
2018-03-26T11:30:17.029Z,511.88
2018-03-26T11:31:17.136Z,506.25
2018-03-26T11:32:16.999Z,506.25
2018-03-26T11:33:16.975Z,500.63
2018-03-26T11:34:16.965Z,495.00
2018-03-26T11:35:16.952Z,489.38
2018-03-26T11:36:16.985Z,489.38
2018-03-26T11:37:16.923Z,483.75
2018-03-26T11:38:16.914Z,478.13
2018-03-26T11:39:16.903Z,478.13
2018-03-26T11:40:16.876Z,472.50
2018-03-26T11:41:16.884Z,478.13
2018-03-26T11:42:16.847Z,472.50
2018-03-26T11:43:16.827Z,472.50
2018-03-26T11:44:16.815Z,472.50
2018-03-26T11:45:16.803Z,472.50
2018-03-26T11:46:16.800Z,478.13
2018-03-26T11:47:16.764Z,472.50
2018-03-26T11:48:16.757Z,472.50
2018-03-26T11:49:16.745Z,466.88
2018-03-26T11:50:16.721Z,461.25
2018-03-26T11:51:16.711Z,450.00
2018-03-26T11:52:16.692Z,444.38
2018-03-26T11:53:16.684Z,444.38
2018-03-26T11:54:16.655Z,438.75
2018-03-26T11:55:16.649Z,438.75
2018-03-26T11:56:16.624Z,438.75
2018-03-26T11:57:16.610Z,433.13
2018-03-26T11:58:16.604Z,427.50
2018-03-26T11:59:16.576Z,427.50
2018-03-26T12:00:16.604Z,427.50
2018-03-26T12:01:16.586Z,421.88
2018-03-26T12:02:16.576Z,427.50
2018-03-26T12:03:16.518Z,427.50
2018-03-26T12:04:16.498Z,433.13
2018-03-26T12:05:16.547Z,438.75
2018-03-26T12:06:16.480Z,455.63
2018-03-26T12:07:16.461Z,472.50
2018-03-26T12:08:16.444Z,495.00
2018-03-26T12:09:16.435Z,511.88
2018-03-26T12:10:16.421Z,540.00
2018-03-26T12:11:16.389Z,556.88
2018-03-26T12:12:16.389Z,573.75
2018-03-26T12:13:16.373Z,590.63
2018-03-26T12:14:16.363Z,601.88
2018-03-26T12:15:16.331Z,613.13
2018-03-26T12:16:16.326Z,618.75
2018-03-26T12:17:16.310Z,618.75
2018-03-26T12:18:16.289Z,618.75
2018-03-26T12:19:16.270Z,613.13
2018-03-26T12:20:16.264Z,601.88
2018-03-26T12:21:16.259Z,596.25
2018-03-26T12:22:16.233Z,590.63
2018-03-26T12:23:16.218Z,585.00
2018-03-26T12:24:16.205Z,585.00
2018-03-26T12:25:16.175Z,596.25
2018-03-26T12:26:16.164Z,601.88
2018-03-26T12:27:16.196Z,613.13
2018-03-26T12:28:16.146Z,624.38
2018-03-26T12:29:16.124Z,630.00
2018-03-26T12:30:16.105Z,630.00
2018-03-26T12:31:16.093Z,624.38
2018-03-26T12:32:16.083Z,613.13
2018-03-26T12:33:16.077Z,613.13
2018-03-26T12:34:16.061Z,613.13
2018-03-26T12:35:16.028Z,618.75
2018-03-26T12:36:16.017Z,624.38
2018-03-26T12:37:16.017Z,635.63
2018-03-26T12:38:15.990Z,624.38
2018-03-26T12:39:15.986Z,624.38
2018-03-26T12:40:15.957Z,624.38
2018-03-26T12:41:15.964Z,630.00
2018-03-26T12:42:15.939Z,635.63
2018-03-26T12:43:15.935Z,641.25
2018-03-26T12:44:15.906Z,646.88
2018-03-26T12:45:15.884Z,663.75
2018-03-26T12:46:15.880Z,663.75
2018-03-26T12:47:15.858Z,663.75
2018-03-26T12:48:15.846Z,663.75
2018-03-26T12:49:15.842Z,663.75
2018-03-26T12:50:15.816Z,663.75